Time;durP1;ratioP1;P1;durP2;ratioP2;P2;SDS_P1;SDS_P2;PMS_P1;PMS_P2;Temp;Humidity;BMP_temperature;BMP_pressure;BME280_temperature;BME280_humidity;BME280_pressure;Samples;Min_cycle;Max_cycle;Signal;HPM_P1;HPM_P2
2021/12/11 00:21:30;;;;;;;1.20;1.10;;;;;;;;;;2049252;22;20235;-75
2021/12/11 00:24:04;;;;;;;1.93;1.20;;;;;;;;;;5010491;28;20233;-73
2021/12/11 00:26:33;;;;;;;1.33;1.30;;;;;;;;;;5007036;28;20227;-75
2021/12/11 00:29:01;;;;;;;1.17;1.17;;;;;;;;;;5014084;28;20246;-74
2021/12/11 00:31:29;;;;;;;1.20;1.20;;;;;;;;;;5019153;28;20251;-73
2021/12/11 00:33:56;;;;;;;3.50;1.27;;;;;;;;;;4987725;28;20294;-75
2021/12/11 00:36:27;;;;;;;1.10;1.10;;;;;;;;;;5013346;28;20210;-73
2021/12/11 00:39:00;;;;;;;1.30;1.30;;;;;;;;;;5013416;28;20403;-76
2021/12/11 00:41:31;;;;;;;1.27;1.20;;;;;;;;;;5016355;28;20795;-73
2021/12/11 00:44:01;;;;;;;7.90;4.10;;;;;;;;;;5021296;28;20234;-71
2021/12/11 00:46:29;;;;;;;4.27;2.87;;;;;;;;;;5008002;28;20250;-75
2021/12/11 00:49:07;;;;;;;11.83;5.43;;;;;;;;;;5018589;28;20329;-75
2021/12/11 00:51:34;;;;;;;1.93;1.83;;;;;;;;;;4997038;28;20865;-74
2021/12/11 00:54:02;;;;;;;1.47;1.40;;;;;;;;;;5010260;28;20574;-74
2021/12/11 00:56:31;;;;;;;1.40;1.30;;;;;;;;;;5016225;28;20223;-74
2021/12/11 00:59:00;;;;;;;1.63;1.37;;;;;;;;;;5013580;28;20223;-74
2021/12/11 01:01:29;;;;;;;1.63;1.40;;;;;;;;;;5012955;28;20306;-73
2021/12/11 01:04:17;;;;;;;1.30;1.20;;;;;;;;;;5011092;28;20298;-73
2021/12/11 01:06:49;;;;;;;1.40;1.20;;;;;;;;;;5017058;28;20660;-73
2021/12/11 01:09:18;;;;;;;1.10;1.10;;;;;;;;;;5024133;28;20360;-76
2021/12/11 01:11:45;;;;;;;1.40;1.30;;;;;;;;;;5007073;28;20727;-71
2021/12/11 01:14:23;;;;;;;1.80;1.40;;;;;;;;;;5009634;28;20306;-73
2021/12/11 01:17:00;;;;;;;2.10;1.33;;;;;;;;;;5011884;28;20287;-75
2021/12/11 01:19:35;;;;;;;1.10;1.10;;;;;;;;;;5010844;28;20303;-71
2021/12/11 01:22:10;;;;;;;1.17;1.17;;;;;;;;;;5019704;28;20737;-73
2021/12/11 01:24:46;;;;;;;1.20;1.20;;;;;;;;;;5017898;28;20310;-72
2021/12/11 01:27:15;;;;;;;1.17;1.17;;;;;;;;;;5007527;28;20202;-71
2021/12/11 01:29:44;;;;;;;1.60;1.20;;;;;;;;;;4988396;28;20739;-75
2021/12/11 01:32:12;;;;;;;1.90;1.80;;;;;;;;;;5017305;28;20285;-73
2021/12/11 01:34:39;;;;;;;1.20;1.20;;;;;;;;;;5007559;28;20348;-72
2021/12/11 01:37:07;;;;;;;1.17;1.17;;;;;;;;;;5013142;28;20277;-74
2021/12/11 01:39:37;;;;;;;1.20;1.20;;;;;;;;;;5008973;28;20238;-72
2021/12/11 01:42:27;;;;;;;2.03;1.20;;;;;;;;;;5022175;28;20268;-73
2021/12/11 01:44:56;;;;;;;1.10;1.10;;;;;;;;;;5000180;28;20210;-71
2021/12/11 01:47:29;;;;;;;1.20;1.20;;;;;;;;;;4995535;28;20231;-73
2021/12/11 01:49:58;;;;;;;1.90;1.20;;;;;;;;;;5014451;28;21028;-73
2021/12/11 01:52:35;;;;;;;1.20;1.20;;;;;;;;;;5012293;28;20613;-74
2021/12/11 01:55:05;;;;;;;1.13;1.13;;;;;;;;;;5014564;28;20225;-72
2021/12/11 01:57:32;;;;;;;1.23;1.13;;;;;;;;;;5012601;28;20295;-73
2021/12/11 02:00:16;;;;;;;1.40;1.30;;;;;;;;;;5010832;28;20921;-73
2021/12/11 02:02:46;;;;;;;1.30;1.20;;;;;;;;;;5017435;28;20215;-70
2021/12/11 02:05:15;;;;;;;1.10;1.10;;;;;;;;;;5006366;28;20218;-72
2021/12/11 02:07:45;;;;;;;1.50;1.40;;;;;;;;;;5018677;28;20272;-73
2021/12/11 02:10:25;;;;;;;1.10;1.10;;;;;;;;;;5018229;28;20262;-73
2021/12/11 02:12:53;;;;;;;1.53;1.30;;;;;;;;;;5011575;28;20292;-75
2021/12/11 02:15:26;;;;;;;1.10;1.10;;;;;;;;;;5016339;28;20195;-75
2021/12/11 02:18:01;;;;;;;1.60;1.20;;;;;;;;;;5019672;28;20207;-73
2021/12/11 02:20:38;;;;;;;1.10;1.10;;;;;;;;;;5010658;28;22393;-73
2021/12/11 02:23:06;;;;;;;1.20;1.10;;;;;;;;;;5018681;28;20648;-74
2021/12/11 02:25:36;;;;;;;1.33;1.20;;;;;;;;;;5017972;28;20254;-75
2021/12/11 02:28:05;;;;;;;1.10;1.10;;;;;;;;;;5008780;28;20349;-72
2021/12/11 02:30:35;;;;;;;1.20;1.10;;;;;;;;;;5016770;28;20459;-73
2021/12/11 02:33:03;;;;;;;2.40;1.20;;;;;;;;;;5013395;28;20228;-74
2021/12/11 02:35:33;;;;;;;1.00;1.00;;;;;;;;;;5012591;28;20199;-73
2021/12/11 02:38:08;;;;;;;1.53;1.30;;;;;;;;;;5013200;28;20986;-71
2021/12/11 02:40:45;;;;;;;1.20;1.20;;;;;;;;;;5020437;28;20253;-74
2021/12/11 02:43:24;;;;;;;1.00;1.00;;;;;;;;;;5017229;28;20202;-72
2021/12/11 02:46:01;;;;;;;1.10;1.10;;;;;;;;;;5011342;28;20250;-75
2021/12/11 02:48:31;;;;;;;1.10;1.10;;;;;;;;;;5010876;28;20265;-74
2021/12/11 02:51:06;;;;;;;1.07;1.07;;;;;;;;;;5012046;28;20308;-73
2021/12/11 02:53:36;;;;;;;1.03;1.03;;;;;;;;;;5013377;28;20659;-73
2021/12/11 02:56:06;;;;;;;1.10;1.10;;;;;;;;;;5017126;28;20302;-72
2021/12/11 02:58:36;;;;;;;1.17;1.17;;;;;;;;;;5019141;28;20294;-74
2021/12/11 03:01:07;;;;;;;1.23;1.00;;;;;;;;;;5020595;28;20194;-75
2021/12/11 03:03:40;;;;;;;1.10;1.07;;;;;;;;;;5017640;28;20203;-72
2021/12/11 03:06:18;;;;;;;1.37;1.17;;;;;;;;;;5009501;28;20282;-74
2021/12/11 03:08:46;;;;;;;1.10;1.10;;;;;;;;;;5009243;28;20244;-73
2021/12/11 03:11:16;;;;;;;1.10;1.10;;;;;;;;;;5021510;28;20679;-73
2021/12/11 03:13:50;;;;;;;1.10;1.10;;;;;;;;;;5017087;28;20262;-74
2021/12/11 03:16:19;;;;;;;1.57;1.03;;;;;;;;;;5017756;28;20690;-74
2021/12/11 03:18:46;;;;;;;1.10;1.10;;;;;;;;;;5022230;28;20241;-72
2021/12/11 03:21:14;;;;;;;1.20;1.10;;;;;;;;;;5014430;28;20211;-73
2021/12/11 03:23:41;;;;;;;1.10;1.10;;;;;;;;;;5021274;28;20210;-75
2021/12/11 03:26:09;;;;;;;1.20;1.10;;;;;;;;;;5020255;28;20203;-72
2021/12/11 03:28:36;;;;;;;2.03;1.07;;;;;;;;;;5012157;28;20265;-71
2021/12/11 03:31:05;;;;;;;1.50;1.10;;;;;;;;;;5021913;28;20203;-74
2021/12/11 03:33:42;;;;;;;1.10;1.10;;;;;;;;;;5018231;28;20685;-72
2021/12/11 03:36:11;;;;;;;1.00;1.00;;;;;;;;;;5019655;28;20202;-75
2021/12/11 03:38:40;;;;;;;1.00;1.00;;;;;;;;;;5018833;28;20728;-71
2021/12/11 03:41:08;;;;;;;1.00;1.00;;;;;;;;;;5008501;28;20202;-73
2021/12/11 03:43:36;;;;;;;1.00;1.00;;;;;;;;;;5003041;28;20206;-73
2021/12/11 03:46:05;;;;;;;1.00;1.00;;;;;;;;;;5014471;28;20231;-72
2021/12/11 03:48:38;;;;;;;1.10;1.10;;;;;;;;;;5017116;28;20209;-72
2021/12/11 03:51:08;;;;;;;1.17;1.17;;;;;;;;;;5015497;28;20210;-74
2021/12/11 03:53:35;;;;;;;0.93;0.93;;;;;;;;;;5019134;28;20238;-76
2021/12/11 03:56:04;;;;;;;0.90;0.90;;;;;;;;;;5011196;28;20708;-75
2021/12/11 03:58:32;;;;;;;0.97;0.97;;;;;;;;;;5012143;28;20211;-73
2021/12/11 04:01:08;;;;;;;1.07;1.07;;;;;;;;;;5016446;28;21721;-73
2021/12/11 04:03:37;;;;;;;1.13;0.90;;;;;;;;;;5014495;28;20211;-74
2021/12/11 04:06:07;;;;;;;0.90;0.90;;;;;;;;;;5014231;28;20235;-74
2021/12/11 04:08:40;;;;;;;0.93;0.93;;;;;;;;;;5016075;28;20290;-74
2021/12/11 04:11:12;;;;;;;1.40;1.30;;;;;;;;;;5015470;28;20295;-74
2021/12/11 04:13:39;;;;;;;1.03;1.03;;;;;;;;;;5015597;28;20278;-74
2021/12/11 04:16:08;;;;;;;3.00;1.00;;;;;;;;;;5011470;28;20294;-71
2021/12/11 04:18:35;;;;;;;1.10;1.10;;;;;;;;;;5014175;28;20708;-74
2021/12/11 04:21:03;;;;;;;1.00;1.00;;;;;;;;;;5018909;28;20319;-74
2021/12/11 04:23:30;;;;;;;0.93;0.93;;;;;;;;;;5018039;28;20594;-75
2021/12/11 04:25:58;;;;;;;0.97;0.97;;;;;;;;;;4993455;28;20579;-73
2021/12/11 04:28:29;;;;;;;1.13;0.90;;;;;;;;;;5018625;28;20294;-71
2021/12/11 04:31:03;;;;;;;1.10;0.90;;;;;;;;;;5007218;28;20321;-73
2021/12/11 04:33:33;;;;;;;0.93;0.93;;;;;;;;;;5010247;28;20241;-74
2021/12/11 04:36:00;;;;;;;1.00;1.00;;;;;;;;;;5013778;28;20294;-72
2021/12/11 04:38:28;;;;;;;0.90;0.90;;;;;;;;;;5012855;28;20680;-73
2021/12/11 04:40:57;;;;;;;1.10;1.00;;;;;;;;;;5001743;28;20227;-74
2021/12/11 04:43:25;;;;;;;1.00;1.00;;;;;;;;;;5007577;28;20212;-74
2021/12/11 04:46:04;;;;;;;0.90;0.90;;;;;;;;;;5019549;28;20257;-75
2021/12/11 04:48:41;;;;;;;1.07;1.07;;;;;;;;;;5011674;28;20222;-75
2021/12/11 05:06:47;;;;;;;1.13;1.13;;;;;;;;;;5008255;28;20199;-76
2021/12/11 05:11:52;;;;;;;1.33;1.23;;;;;;;;;;5000658;28;20623;-74
2021/12/11 05:14:21;;;;;;;1.20;1.20;;;;;;;;;;5013157;28;20276;-74
2021/12/11 05:16:49;;;;;;;1.20;1.20;;;;;;;;;;5005728;28;20298;-72
2021/12/11 05:19:16;;;;;;;1.20;1.20;;;;;;;;;;4998678;28;20845;-73
2021/12/11 05:21:44;;;;;;;1.27;1.27;;;;;;;;;;5014209;28;20234;-73
2021/12/11 05:24:12;;;;;;;1.40;1.40;;;;;;;;;;5007011;28;20214;-72
2021/12/11 05:26:39;;;;;;;1.13;1.13;;;;;;;;;;5014910;28;20734;-73
2021/12/11 05:29:07;;;;;;;1.20;1.20;;;;;;;;;;5012545;28;20242;-74
2021/12/11 05:31:34;;;;;;;1.20;1.20;;;;;;;;;;5012113;28;20298;-74
2021/12/11 05:34:02;;;;;;;1.27;1.27;;;;;;;;;;5014065;28;20633;-72
2021/12/11 05:36:31;;;;;;;1.17;1.17;;;;;;;;;;5006607;28;20293;-72
2021/12/11 05:39:00;;;;;;;1.27;1.17;;;;;;;;;;5008252;28;20207;-74
2021/12/11 05:41:27;;;;;;;1.00;1.00;;;;;;;;;;5006560;28;20307;-74
2021/12/11 05:43:55;;;;;;;1.10;1.10;;;;;;;;;;5015056;28;20250;-71
2021/12/11 05:46:23;;;;;;;1.10;1.10;;;;;;;;;;5018414;28;20821;-72
2021/12/11 05:48:51;;;;;;;1.50;1.40;;;;;;;;;;5014199;28;20223;-73
2021/12/11 05:51:21;;;;;;;1.53;1.53;;;;;;;;;;5015753;28;20664;-74
2021/12/11 05:53:50;;;;;;;1.30;1.30;;;;;;;;;;5017925;28;20233;-74
2021/12/11 05:56:18;;;;;;;1.40;1.40;;;;;;;;;;5020944;28;20298;-72
2021/12/11 05:58:56;;;;;;;1.47;1.43;;;;;;;;;;5001926;28;20213;-71
2021/12/11 06:01:26;;;;;;;1.63;1.60;;;;;;;;;;5020970;28;20310;-66
2021/12/11 06:03:58;;;;;;;1.60;1.50;;;;;;;;;;5032888;28;20250;-69
2021/12/11 06:06:25;;;;;;;1.50;1.50;;;;;;;;;;5033163;28;20218;-68
2021/12/11 06:08:53;;;;;;;1.90;1.80;;;;;;;;;;5033134;28;20217;-68
2021/12/11 06:11:20;;;;;;;2.20;2.10;;;;;;;;;;5033375;28;20973;-67
2021/12/11 06:13:47;;;;;;;2.00;1.90;;;;;;;;;;5034263;28;20227;-69
2021/12/11 06:16:16;;;;;;;2.67;2.50;;;;;;;;;;5033506;28;20203;-69
2021/12/11 06:18:45;;;;;;;2.37;2.27;;;;;;;;;;5033273;28;20625;-69
2021/12/11 06:21:13;;;;;;;2.43;2.33;;;;;;;;;;5015414;28;20225;-68
2021/12/11 06:23:41;;;;;;;2.57;2.43;;;;;;;;;;5033672;28;20206;-69
2021/12/11 06:26:09;;;;;;;2.70;2.60;;;;;;;;;;5033971;28;20272;-70
2021/12/11 06:28:37;;;;;;;2.43;2.23;;;;;;;;;;5033379;28;20714;-69
2021/12/11 06:31:04;;;;;;;2.10;2.00;;;;;;;;;;5032548;28;20300;-69
2021/12/11 06:33:33;;;;;;;2.00;1.90;;;;;;;;;;5032747;28;20426;-69
2021/12/11 06:36:03;;;;;;;1.60;1.50;;;;;;;;;;5032631;28;20245;-68
2021/12/11 06:38:32;;;;;;;2.73;2.53;;;;;;;;;;5034135;28;20288;-70
2021/12/11 06:41:00;;;;;;;3.70;3.40;;;;;;;;;;5033000;28;20222;-67
2021/12/11 06:43:27;;;;;;;2.00;1.90;;;;;;;;;;5033281;28;20289;-68
2021/12/11 06:45:55;;;;;;;2.60;2.40;;;;;;;;;;5033293;28;20211;-68
2021/12/11 06:48:22;;;;;;;2.10;2.00;;;;;;;;;;5032862;28;20245;-69
2021/12/11 06:50:50;;;;;;;3.23;3.03;;;;;;;;;;5033385;28;20653;-67
2021/12/11 06:53:21;;;;;;;2.67;2.47;;;;;;;;;;5032028;28;20549;-68
2021/12/11 06:55:48;;;;;;;2.20;2.10;;;;;;;;;;5032030;28;20214;-69
2021/12/11 06:58:16;;;;;;;2.70;2.50;;;;;;;;;;5015284;28;20242;-68
2021/12/11 07:00:43;;;;;;;3.00;2.80;;;;;;;;;;5014735;28;20258;-67
2021/12/11 07:03:11;;;;;;;3.07;2.87;;;;;;;;;;5032412;28;20236;-66
2021/12/11 07:05:38;;;;;;;2.13;2.03;;;;;;;;;;5032612;28;20233;-68
2021/12/11 07:08:07;;;;;;;2.00;1.90;;;;;;;;;;5032031;28;20861;-69
2021/12/11 07:10:34;;;;;;;2.10;2.00;;;;;;;;;;5031466;28;20265;-67
2021/12/11 07:13:02;;;;;;;2.50;2.30;;;;;;;;;;5032514;28;20649;-69
2021/12/11 07:15:29;;;;;;;2.73;2.53;;;;;;;;;;5032546;28;20214;-68
2021/12/11 07:17:57;;;;;;;6.73;5.77;;;;;;;;;;5032589;28;20632;-68
2021/12/11 07:20:24;;;;;;;13.37;10.97;;;;;;;;;;5032429;28;20642;-67
2021/12/11 07:22:54;;;;;;;3.37;3.07;;;;;;;;;;5031750;28;20219;-69
2021/12/11 07:25:45;;;;;;;6.20;5.67;;;;;;;;;;5032807;28;20254;-68
2021/12/11 07:28:12;;;;;;;8.03;7.43;;;;;;;;;;5031813;28;20837;-68
2021/12/11 07:30:41;;;;;;;6.27;5.80;;;;;;;;;;5031781;28;20232;-66
2021/12/11 07:33:09;;;;;;;5.60;5.17;;;;;;;;;;5031823;28;20677;-66
2021/12/11 07:35:37;;;;;;;5.30;4.90;;;;;;;;;;5031932;28;20194;-68
2021/12/11 07:38:04;;;;;;;6.27;5.77;;;;;;;;;;5031339;28;20778;-68
2021/12/11 07:40:35;;;;;;;3.87;3.57;;;;;;;;;;5031963;28;20262;-69
2021/12/11 07:43:04;;;;;;;5.60;5.10;;;;;;;;;;5031471;28;20729;-67
2021/12/11 07:45:32;;;;;;;4.63;4.23;;;;;;;;;;5031290;28;20237;-69
2021/12/11 07:47:59;;;;;;;3.60;3.30;;;;;;;;;;5031081;28;20207;-68
2021/12/11 07:50:27;;;;;;;3.30;3.10;;;;;;;;;;5031523;28;20858;-68
2021/12/11 07:52:55;;;;;;;3.30;3.10;;;;;;;;;;5031178;28;20215;-67
2021/12/11 07:55:22;;;;;;;3.67;2.80;;;;;;;;;;5032082;28;20211;-69
2021/12/11 07:57:50;;;;;;;3.57;3.27;;;;;;;;;;5031492;28;20221;-66
2021/12/11 08:00:20;;;;;;;4.00;3.70;;;;;;;;;;5030932;28;20262;-68
2021/12/11 08:02:48;;;;;;;3.00;2.80;;;;;;;;;;5030269;28;20214;-68
2021/12/11 08:05:15;;;;;;;2.47;2.37;;;;;;;;;;5031641;28;20659;-68
2021/12/11 08:07:43;;;;;;;3.23;3.03;;;;;;;;;;5030821;28;20643;-69
2021/12/11 08:10:16;;;;;;;3.57;3.30;;;;;;;;;;5031328;28;20265;-69
2021/12/11 08:12:46;;;;;;;2.53;2.33;;;;;;;;;;5030880;28;20297;-69
2021/12/11 08:15:15;;;;;;;2.40;2.30;;;;;;;;;;5031078;28;20245;-69
2021/12/11 08:17:50;;;;;;;2.70;2.50;;;;;;;;;;5030850;28;20252;-69
2021/12/11 08:20:18;;;;;;;2.63;2.47;;;;;;;;;;5029882;28;20260;-69
2021/12/11 08:22:45;;;;;;;2.83;2.63;;;;;;;;;;5013408;28;20273;-68
2021/12/11 08:25:13;;;;;;;2.67;2.47;;;;;;;;;;5030807;28;20250;-68
2021/12/11 08:27:41;;;;;;;2.67;2.47;;;;;;;;;;5031409;28;20241;-68
2021/12/11 08:30:08;;;;;;;2.77;2.57;;;;;;;;;;5012965;28;20286;-68
2021/12/11 08:32:36;;;;;;;5.50;2.43;;;;;;;;;;5030459;28;20209;-69
2021/12/11 08:35:06;;;;;;;2.93;2.73;;;;;;;;;;5031054;28;20234;-69
2021/12/11 08:37:33;;;;;;;2.80;2.60;;;;;;;;;;5030345;28;20207;-67
2021/12/11 08:40:00;;;;;;;3.00;2.80;;;;;;;;;;5030786;28;20850;-69
2021/12/11 08:42:28;;;;;;;3.03;2.83;;;;;;;;;;5030098;28;20255;-71
2021/12/11 08:45:05;;;;;;;2.90;2.70;;;;;;;;;;5028192;28;20303;-67
2021/12/11 08:47:35;;;;;;;2.40;2.30;;;;;;;;;;5012378;28;20206;-67
2021/12/11 08:50:03;;;;;;;2.70;2.50;;;;;;;;;;5029412;28;20222;-68
2021/12/11 08:52:35;;;;;;;2.37;2.27;;;;;;;;;;5029471;28;20199;-68
2021/12/11 08:55:10;;;;;;;2.70;2.50;;;;;;;;;;5024822;28;20251;-73
2021/12/11 08:57:40;;;;;;;2.90;2.70;;;;;;;;;;5015748;28;20299;-73
2021/12/11 09:00:12;;;;;;;16.93;10.33;;;;;;;;;;5021038;28;20245;-75
2021/12/11 09:02:46;;;;;;;39.33;22.87;;;;;;;;;;5013968;28;20276;-72
2021/12/11 09:05:28;;;;;;;8.60;7.70;;;;;;;;;;5005446;28;20203;-74
2021/12/11 09:08:06;;;;;;;4.60;4.30;;;;;;;;;;5007175;28;20371;-74
2021/12/11 09:10:40;;;;;;;5.07;4.67;;;;;;;;;;5014175;28;20230;-75
2021/12/11 09:13:16;;;;;;;5.07;4.67;;;;;;;;;;5018473;28;20761;-73
2021/12/11 09:15:43;;;;;;;4.13;3.73;;;;;;;;;;5011216;28;20248;-74
2021/12/11 09:18:16;;;;;;;4.77;4.37;;;;;;;;;;5012452;28;20201;-75
2021/12/11 09:20:47;;;;;;;4.83;4.53;;;;;;;;;;5006983;28;20466;-73
2021/12/11 09:23:25;;;;;;;3.40;3.20;;;;;;;;;;5014002;28;20239;-75
2021/12/11 09:25:55;;;;;;;3.13;2.93;;;;;;;;;;5016087;28;20256;-72
2021/12/11 09:28:32;;;;;;;3.60;3.40;;;;;;;;;;4993564;28;20369;-74
2021/12/11 09:31:07;;;;;;;3.93;3.53;;;;;;;;;;5013394;28;20254;-72
2021/12/11 09:33:37;;;;;;;5.30;2.93;;;;;;;;;;5012038;28;20222;-75
2021/12/11 09:36:07;;;;;;;3.33;3.03;;;;;;;;;;5012699;28;20279;-74
2021/12/11 09:38:37;;;;;;;3.10;2.90;;;;;;;;;;5010617;28;20294;-72
2021/12/11 09:41:20;;;;;;;3.33;3.13;;;;;;;;;;5010778;28;20301;-72
2021/12/11 09:43:48;;;;;;;3.13;2.93;;;;;;;;;;4999684;28;20238;-74
2021/12/11 09:46:19;;;;;;;3.63;3.30;;;;;;;;;;5002534;28;20330;-74
2021/12/11 09:48:48;;;;;;;3.60;3.40;;;;;;;;;;5007519;28;20273;-72
2021/12/11 09:51:18;;;;;;;3.77;3.47;;;;;;;;;;5012613;28;20235;-73
2021/12/11 09:53:48;;;;;;;3.83;3.53;;;;;;;;;;5001560;28;20313;-72
2021/12/11 09:56:19;;;;;;;3.40;3.20;;;;;;;;;;5004858;28;20203;-71
2021/12/11 09:58:46;;;;;;;2.93;2.73;;;;;;;;;;5011787;28;20211;-74
2021/12/11 10:01:19;;;;;;;3.17;2.97;;;;;;;;;;5005100;28;20293;-73
2021/12/11 10:03:55;;;;;;;3.70;3.40;;;;;;;;;;5011741;28;22183;-75
2021/12/11 10:07:23;;;;;;;3.50;3.20;;;;;;;;;;5014610;28;20293;-72
2021/12/11 10:09:23;;;;;;;3.60;3.27;;;;;;;;;;5017536;28;20293;-75
2021/12/11 10:12:01;;;;;;;4.40;3.90;;;;;;;;;;5017434;28;20211;-75
2021/12/11 10:14:40;;;;;;;4.13;3.83;;;;;;;;;;5014654;28;20619;-74
2021/12/11 10:17:10;;;;;;;5.03;4.53;;;;;;;;;;5018883;28;20645;-73
2021/12/11 10:19:38;;;;;;;4.47;4.10;;;;;;;;;;5027580;28;20218;-74
2021/12/11 10:22:20;;;;;;;4.50;4.10;;;;;;;;;;5021491;28;20304;-74
2021/12/11 10:24:47;;;;;;;4.33;3.93;;;;;;;;;;5023891;28;20310;-75
2021/12/11 10:27:16;;;;;;;4.57;4.07;;;;;;;;;;5020169;28;20234;-74
2021/12/11 10:29:45;;;;;;;3.57;3.27;;;;;;;;;;5014976;28;20658;-74
2021/12/11 10:32:16;;;;;;;3.30;3.10;;;;;;;;;;5024663;28;20284;-73
2021/12/11 10:34:45;;;;;;;3.20;3.00;;;;;;;;;;5017988;28;20671;-75
2021/12/11 10:37:15;;;;;;;3.67;3.37;;;;;;;;;;5024152;28;20232;-72
2021/12/11 10:39:44;;;;;;;4.10;3.80;;;;;;;;;;5025388;28;20305;-73
2021/12/11 10:42:12;;;;;;;3.87;3.57;;;;;;;;;;5023194;28;20211;-75
2021/12/11 10:44:41;;;;;;;6.33;4.43;;;;;;;;;;5022636;28;20212;-75
2021/12/11 10:47:16;;;;;;;5.73;5.13;;;;;;;;;;5024857;28;20231;-75
2021/12/11 10:50:10;;;;;;;5.60;5.10;;;;;;;;;;5020706;28;20590;-74
2021/12/11 10:52:38;;;;;;;4.60;4.20;;;;;;;;;;5025752;28;20206;-75
2021/12/11 10:55:09;;;;;;;4.67;4.27;;;;;;;;;;5012089;28;20292;-73
2021/12/11 10:57:37;;;;;;;4.87;4.43;;;;;;;;;;5016249;28;20210;-75
2021/12/11 11:00:09;;;;;;;3.70;3.40;;;;;;;;;;5014507;28;20219;-75
2021/12/11 11:02:36;;;;;;;3.57;3.27;;;;;;;;;;5011370;28;20260;-74
2021/12/11 11:05:09;;;;;;;3.40;3.20;;;;;;;;;;5015231;28;20786;-76
2021/12/11 11:07:37;;;;;;;3.57;3.33;;;;;;;;;;5003699;28;20208;-74
2021/12/11 11:10:06;;;;;;;4.10;3.60;;;;;;;;;;5021117;28;20305;-75
2021/12/11 11:12:34;;;;;;;4.13;3.73;;;;;;;;;;4993586;28;20410;-73
2021/12/11 11:15:01;;;;;;;5.80;5.30;;;;;;;;;;5011863;28;20318;-74
2021/12/11 11:17:32;;;;;;;4.43;4.13;;;;;;;;;;5013265;28;20215;-74
2021/12/11 11:20:00;;;;;;;4.33;4.03;;;;;;;;;;5013516;28;20700;-76
2021/12/11 11:22:29;;;;;;;4.27;3.93;;;;;;;;;;5012012;28;20341;-73
2021/12/11 11:24:58;;;;;;;4.37;3.93;;;;;;;;;;5008378;28;20226;-75
2021/12/11 11:27:25;;;;;;;3.70;3.40;;;;;;;;;;5005294;28;20305;-72
2021/12/11 11:29:53;;;;;;;4.13;3.73;;;;;;;;;;5020360;28;20260;-74
2021/12/11 11:32:28;;;;;;;4.03;3.70;;;;;;;;;;5014920;28;20202;-74
2021/12/11 11:34:55;;;;;;;3.60;3.30;;;;;;;;;;5014163;28;20254;-75
2021/12/11 11:37:23;;;;;;;3.47;3.27;;;;;;;;;;5002969;28;20209;-75
2021/12/11 11:39:50;;;;;;;3.67;3.23;;;;;;;;;;5020151;28;20246;-75
2021/12/11 11:42:22;;;;;;;3.17;2.97;;;;;;;;;;5021053;28;20203;-75
2021/12/11 11:44:51;;;;;;;3.27;3.07;;;;;;;;;;5017842;28;20237;-74
2021/12/11 11:47:19;;;;;;;3.93;3.43;;;;;;;;;;5019046;28;20231;-73
2021/12/11 11:49:48;;;;;;;4.73;4.33;;;;;;;;;;5016484;28;20228;-75
2021/12/11 11:52:20;;;;;;;4.80;4.40;;;;;;;;;;5021209;28;20290;-75
2021/12/11 11:54:48;;;;;;;6.77;6.17;;;;;;;;;;5020414;28;20323;-74
2021/12/11 11:57:19;;;;;;;7.30;5.07;;;;;;;;;;5022830;28;20206;-75
2021/12/11 11:59:49;;;;;;;5.70;4.90;;;;;;;;;;5020292;28;20277;-74
2021/12/11 12:02:19;;;;;;;5.70;4.90;;;;;;;;;;5021504;28;20298;-75
2021/12/11 12:04:48;;;;;;;5.80;5.30;;;;;;;;;;5019065;28;20207;-74
2021/12/11 12:07:16;;;;;;;6.67;5.73;;;;;;;;;;5020401;28;20294;-74
2021/12/11 12:09:45;;;;;;;6.03;5.43;;;;;;;;;;5016155;28;20231;-73
2021/12/11 12:12:13;;;;;;;5.50;5.00;;;;;;;;;;5008671;28;20191;-73
2021/12/11 12:17:24;;;;;;;5.13;4.63;;;;;;;;;;5808614;23;20247;-81
2021/12/11 12:19:53;;;;;;;5.73;4.90;;;;;;;;;;4993876;28;20208;-80
2021/12/11 12:22:22;;;;;;;5.40;4.90;;;;;;;;;;4970765;28;20208;-78
2021/12/11 12:24:50;;;;;;;6.77;4.97;;;;;;;;;;4980105;28;20295;-76
2021/12/11 12:27:19;;;;;;;4.93;4.43;;;;;;;;;;5004518;28;20686;-80
2021/12/11 12:29:50;;;;;;;3.87;3.57;;;;;;;;;;4998071;28;20239;-79
2021/12/11 12:32:21;;;;;;;5.40;4.53;;;;;;;;;;5000292;28;20290;-79
2021/12/11 12:34:49;;;;;;;4.63;4.23;;;;;;;;;;4983333;28;20227;-79
2021/12/11 12:37:16;;;;;;;4.83;4.43;;;;;;;;;;5001703;28;20348;-79
2021/12/11 12:39:48;;;;;;;5.33;4.50;;;;;;;;;;4987840;28;20238;-81
2021/12/11 12:42:26;;;;;;;4.97;4.50;;;;;;;;;;4977441;28;20219;-77
2021/12/11 12:45:14;;;;;;;4.93;4.40;;;;;;;;;;4998994;28;20281;-82
2021/12/11 12:47:44;;;;;;;5.20;4.70;;;;;;;;;;4998403;28;20263;-78
2021/12/11 12:50:18;;;;;;;4.60;3.87;;;;;;;;;;4997375;28;20208;-76
2021/12/11 12:52:47;;;;;;;4.50;4.10;;;;;;;;;;4999098;28;20212;-81
2021/12/11 12:55:18;;;;;;;5.47;4.97;;;;;;;;;;5004620;28;20809;-78
2021/12/11 12:57:47;;;;;;;5.47;4.30;;;;;;;;;;5002207;28;20310;-79
2021/12/11 13:00:30;;;;;;;4.63;4.23;;;;;;;;;;5010329;28;21539;-79
2021/12/11 13:03:01;;;;;;;5.37;4.87;;;;;;;;;;5004985;28;20943;-80
2021/12/11 13:05:32;;;;;;;5.53;5.03;;;;;;;;;;4999827;28;20290;-80
2021/12/11 13:08:02;;;;;;;6.67;5.57;;;;;;;;;;5000680;28;20315;-80
2021/12/11 13:10:36;;;;;;;6.27;5.40;;;;;;;;;;5007342;28;20223;-81
2021/12/11 13:13:04;;;;;;;5.63;5.03;;;;;;;;;;4986463;28;20310;-79
2021/12/11 13:15:54;;;;;;;5.73;5.17;;;;;;;;;;5000147;28;20303;-78
2021/12/11 13:18:23;;;;;;;6.00;5.40;;;;;;;;;;4988546;28;20231;-80
2021/12/11 13:21:02;;;;;;;5.40;4.90;;;;;;;;;;5005072;28;20725;-76
2021/12/11 13:23:32;;;;;;;7.03;5.23;;;;;;;;;;4998710;28;20254;-79
2021/12/11 13:26:00;;;;;;;7.43;5.40;;;;;;;;;;4996003;28;20220;-77
2021/12/11 13:28:29;;;;;;;6.57;5.63;;;;;;;;;;4999078;28;20250;-80
2021/12/11 13:31:02;;;;;;;6.97;5.77;;;;;;;;;;4997180;28;20234;-81
2021/12/11 13:33:30;;;;;;;6.97;6.27;;;;;;;;;;4989746;28;20809;-78
2021/12/11 13:35:59;;;;;;;6.30;5.70;;;;;;;;;;4973179;28;20363;-79
2021/12/11 13:38:27;;;;;;;5.37;4.83;;;;;;;;;;5003277;28;20225;-81
2021/12/11 13:40:56;;;;;;;5.70;5.10;;;;;;;;;;4986102;28;20294;-80
2021/12/11 13:43:24;;;;;;;4.60;4.20;;;;;;;;;;4998643;28;20674;-79
2021/12/11 13:45:52;;;;;;;4.77;4.37;;;;;;;;;;5000085;28;20279;-80
2021/12/11 13:48:20;;;;;;;5.23;4.67;;;;;;;;;;5004205;28;20259;-80
2021/12/11 13:51:01;;;;;;;4.93;4.53;;;;;;;;;;5004985;28;20286;-79
2021/12/11 13:53:29;;;;;;;5.20;4.67;;;;;;;;;;4989416;28;20239;-79
2021/12/11 13:55:57;;;;;;;6.17;5.57;;;;;;;;;;4996460;28;20230;-78
2021/12/11 13:58:25;;;;;;;5.83;5.23;;;;;;;;;;4994987;28;20248;-79
2021/12/11 14:00:59;;;;;;;6.87;4.90;;;;;;;;;;5000594;28;20207;-81
2021/12/11 14:03:27;;;;;;;7.07;5.83;;;;;;;;;;5000109;28;20544;-78
2021/12/11 14:05:58;;;;;;;5.67;5.07;;;;;;;;;;4986428;28;20246;-79
2021/12/11 14:08:26;;;;;;;5.57;5.07;;;;;;;;;;5011280;28;20306;-79
2021/12/11 14:10:55;;;;;;;6.63;5.50;;;;;;;;;;4986359;28;20239;-80
2021/12/11 14:13:23;;;;;;;4.97;4.50;;;;;;;;;;5006216;28;20662;-79
2021/12/11 14:15:52;;;;;;;5.87;5.00;;;;;;;;;;5004983;28;20363;-79
2021/12/11 14:18:22;;;;;;;5.17;4.53;;;;;;;;;;4996399;28;20257;-79
2021/12/11 14:20:50;;;;;;;5.10;4.50;;;;;;;;;;5011757;28;20673;-77
2021/12/11 14:23:19;;;;;;;5.10;4.60;;;;;;;;;;5003375;28;20195;-80
2021/12/11 14:25:47;;;;;;;8.40;6.17;;;;;;;;;;5005799;28;20302;-81
2021/12/11 14:28:15;;;;;;;4.67;4.27;;;;;;;;;;4990947;28;20699;-78
2021/12/11 14:30:45;;;;;;;3.77;3.47;;;;;;;;;;4987236;28;20210;-79
2021/12/11 14:33:16;;;;;;;4.23;3.83;;;;;;;;;;4991173;28;20562;-80
2021/12/11 14:35:46;;;;;;;4.00;3.67;;;;;;;;;;4991786;28;20246;-80
2021/12/11 14:38:13;;;;;;;4.07;3.77;;;;;;;;;;5005797;28;20318;-80
2021/12/11 14:40:43;;;;;;;4.30;3.67;;;;;;;;;;5005822;28;20216;-77
2021/12/11 14:43:12;;;;;;;4.30;3.80;;;;;;;;;;5002506;28;20280;-78
2021/12/11 14:45:40;;;;;;;3.97;3.60;;;;;;;;;;4980067;28;20664;-80
2021/12/11 14:48:07;;;;;;;4.50;3.87;;;;;;;;;;4988537;28;20510;-81
2021/12/11 14:50:38;;;;;;;3.70;3.40;;;;;;;;;;5001609;28;20278;-79
2021/12/11 14:53:05;;;;;;;5.13;4.07;;;;;;;;;;5001625;28;20234;-81
2021/12/11 14:55:36;;;;;;;4.47;4.07;;;;;;;;;;4997429;28;20263;-80
2021/12/11 14:58:04;;;;;;;4.53;4.13;;;;;;;;;;4979267;28;20314;-81
2021/12/11 15:00:31;;;;;;;4.70;4.30;;;;;;;;;;4991419;28;20207;-79
2021/12/11 15:02:59;;;;;;;4.67;4.03;;;;;;;;;;4982641;28;20704;-78
2021/12/11 15:05:29;;;;;;;4.30;3.93;;;;;;;;;;4993427;28;20204;-81
2021/12/11 15:07:58;;;;;;;5.35;4.88;;;;;;;;;;4989106;28;20543;-80
2021/12/11 15:10:29;;;;;;;4.67;4.27;;;;;;;;;;4987572;28;20293;-80
2021/12/11 15:13:15;;;;;;;4.50;4.10;;;;;;;;;;4986787;28;20208;-76
2021/12/11 15:15:43;;;;;;;4.00;3.70;;;;;;;;;;4998842;28;20235;-80
2021/12/11 15:18:10;;;;;;;3.63;3.33;;;;;;;;;;4997554;28;20227;-78
2021/12/11 15:20:40;;;;;;;4.37;3.97;;;;;;;;;;4998316;28;20290;-80
2021/12/11 15:23:08;;;;;;;4.27;3.87;;;;;;;;;;5000917;28;20245;-79
2021/12/11 15:25:36;;;;;;;4.63;4.13;;;;;;;;;;5001908;28;20663;-79
2021/12/11 15:28:07;;;;;;;3.83;3.53;;;;;;;;;;4981398;28;20222;-80
2021/12/11 15:30:40;;;;;;;4.90;4.40;;;;;;;;;;4981698;28;20206;-80
2021/12/11 15:33:27;;;;;;;4.50;4.10;;;;;;;;;;5006896;28;20223;-78
2021/12/11 15:35:59;;;;;;;4.13;3.73;;;;;;;;;;4986987;28;20228;-85
2021/12/11 15:38:26;;;;;;;4.13;3.60;;;;;;;;;;4992814;28;20246;-80
2021/12/11 15:40:54;;;;;;;4.67;4.23;;;;;;;;;;4988477;28;20219;-79
2021/12/11 15:43:22;;;;;;;4.50;4.10;;;;;;;;;;5004863;28;20212;-81